EGKKDNIL

Guest
Details From EGKK - London Gatwick
To DNIL - Ilorin
Flight Number -
Tags Generated
Created
Modified
Stats Distance 2,577 nm / 4,772 km
Max Altitude 0 ft / 0 m
Waypoints 6
Social Downloads 1
Likes 0
Share VATSIM

Download

Looking for another format? Having issues loading an existing format? Contact us
Advertisement - Login to hide

Notes

Generated

Route

EGKK PEPAX SURUD GATOS IL DNIL

ID Type Via Altitude Latitude Longitude Leg Dist Tot Dist Heading (true) Name
O EGKK APT - 0 ft / 0 m 51.14691˚ -0.21257˚ - 0 nm - -
PEPAX FIX - 0 ft / 0 m 47.08139˚ 0.45250˚ 245 nm 245 nm 174° / 174° -
SURUD FIX - 0 ft / 0 m 43.45431˚ 0.97922˚ 218 nm 464 nm 174° / 174° -
GATOS FIX - 0 ft / 0 m 39.46737˚ 1.39829˚ 240 nm 704 nm 175° / 176° -
IL NDB - 0 ft / 0 m 8.42532˚ 4.47560˚ 1871 nm 2576 nm 174° / 175° ILORIN NDB
O DNIL APT - 0 ft / 0 m 8.43097˚ 4.48331˚ 0 nm 2576 nm 53° / 53° -

Altitude Profile

Advertisement - Login to hide

Weather


0- 5 10 15 20 25 30 35+ Temperature / ° C

Clouds and Precipitation
Forecast for 2017-12-11 06:00 UTC. Updated an hour ago

Ground ~20,000 ft ~40,000 ft Winds

EGKK

Details ICAO EGKK (LGW)
Name London Gatwick
Region United Kingdom
Timezone Europe/London (UTC+0.0)
Stats Elevation 196 ft / 60 m (AMSL)
Location 51.148753° -0.192472°
Runways 2
Magnetic Variation 0.433° W

METAR

EGKK 110620Z 04013KT 8000 -RA BKN007 02/02 Q0976 RERA

Decode

TAF

TAF AMD EGKK 110611Z 1106/1212 04015KT 7000 -RA BKN006 TEMPO 1106/1107 4000 RA TEMPO 1107/1118 2000 RASN BKN004 PROB30 TEMPO 1109/1116 1000 SN PROB40 TEMPO 1110/1118 03020G30KT BECMG 1116/1119 31008KT 9999 NSW FEW020

Decode

Departure Runways

ID Width Length Bearing (true) Bearing (mag) Surface Threshold Offset Overrun Length
08L 148 ft / 45 m 8,377 ft / 2,553 m 77.69° 78.12° Asphalt 1,053 ft / 321 m 0 ft / 0 m
08R 148 ft / 45 m 10,341 ft / 3,152 m 77.59° 78.02° Asphalt 1,289 ft / 393 m 0 ft / 0 m
26L 148 ft / 45 m 10,341 ft / 3,152 m 257.63° 258.06° Asphalt 879 ft / 268 m 600 ft / 183 m
26R 148 ft / 45 m 8,377 ft / 2,553 m 257.71° 258.14° Asphalt 1,365 ft / 416 m 0 ft / 0 m

DNIL

Details ICAO DNIL (ILR)
Name ILORIN
Region Nigeria
Timezone Africa/Lagos (UTC+1.0)
Stats Elevation 1,126 ft / 343 m (AMSL)
Location 8.440115° 4.493969°
Runways 1
Magnetic Variation 1.554° W

METAR

Not found

TAF

TAF DNIL 102140Z 1100/1206 07008KT 1000 DU NSC

Decode

Destination Runways

ID Width Length Bearing (true) Bearing (mag) Surface Threshold Offset Overrun Length
05 197 ft / 60 m 10,189 ft / 3,106 m 49.07° 50.62° Asphalt 0 ft / 0 m 397 ft / 121 m
23 197 ft / 60 m 10,189 ft / 3,106 m 229.07° 230.62° Asphalt 0 ft / 0 m 397 ft / 121 m

Approach Navaids

Runway Type Ident Frequency Range Bearing (true) Bearing (mag) Slope Elevation
05 Localiser IIL 109.90 MHz 18 nm / 33 km 47.64° 49.19° - 1,102 ft / 336 m (AMSL)
05 Glidescope IIL 109.90 MHz 10 nm / 19 km 49.07° 50.62° 3.00° 1,161 ft / 354 m (AMSL)
05 DME IIL 112.30 MHz 18 nm / 33 km - - - 1,126 ft / 343 m (AMSL)